Time;durP1;ratioP1;P1;durP2;ratioP2;P2;SDS_P1;SDS_P2;PMS_P1;PMS_P2;Temp;Humidity;BMP_temperature;BMP_pressure;BME280_temperature;BME280_humidity;BME280_pressure;Samples;Min_cycle;Max_cycle;Signal;HPM_P1;HPM_P2
2021/01/20 00:01:14;;;;;;;;;;;;;;;16.28;57.36;101594.94;5056743;28;1497;-58
2021/01/20 00:03:40;;;;;;;;;;;;;;;16.23;57.67;101606.84;5057134;28;1485;-59
2021/01/20 00:06:06;;;;;;;;;;;;;;;16.25;57.12;101600.50;5056847;28;1480;-58
2021/01/20 00:08:31;;;;;;;;;;;;;;;16.20;56.77;101591.06;5057095;28;1401;-61
2021/01/20 00:10:56;;;;;;;;;;;;;;;16.21;58.23;101609.59;5056727;28;1902;-60
2021/01/20 00:13:22;;;;;;;;;;;;;;;16.20;57.50;101610.59;5056701;28;1520;-58
2021/01/20 00:15:47;;;;;;;;;;;;;;;16.15;57.83;101599.31;5056886;28;1624;-60
2021/01/20 00:18:13;;;;;;;;;;;;;;;16.15;57.19;101604.66;5056726;28;1456;-59
2021/01/20 00:20:38;;;;;;;;;;;;;;;16.12;57.50;101602.22;5056233;28;1619;-58
2021/01/20 00:23:03;;;;;;;;;;;;;;;16.10;58.47;101609.44;5056505;28;1477;-59
2021/01/20 00:25:29;;;;;;;;;;;;;;;16.07;58.65;101601.63;5056750;28;1528;-60
2021/01/20 00:27:54;;;;;;;;;;;;;;;16.11;57.57;101616.47;5056713;28;1531;-59
2021/01/20 00:30:20;;;;;;;;;;;;;;;16.05;57.88;101593.72;5056205;28;1599;-58
2021/01/20 00:32:45;;;;;;;;;;;;;;;16.05;57.92;101607.03;5056530;28;1953;-58
2021/01/20 00:35:11;;;;;;;;;;;;;;;16.02;58.48;101593.06;5055539;28;1441;-58
2021/01/20 00:37:37;;;;;;;;;;;;;;;16.00;57.76;101608.31;5056519;28;1473;-59
2021/01/20 00:40:03;;;;;;;;;;;;;;;15.97;57.42;101611.16;5055942;28;1501;-59
2021/01/20 00:42:28;;;;;;;;;;;;;;;15.97;58.42;101601.34;5055859;28;1531;-58
2021/01/20 00:44:54;;;;;;;;;;;;;;;15.97;57.63;101603.16;5055546;28;1548;-58
2021/01/20 00:47:19;;;;;;;;;;;;;;;15.95;58.39;101607.72;5056029;28;1564;-59
2021/01/20 00:49:44;;;;;;;;;;;;;;;15.96;58.62;101593.44;5056289;28;1476;-60
2021/01/20 00:52:10;;;;;;;;;;;;;;;15.94;58.25;101590.03;5055691;28;1893;-58
2021/01/20 00:54:35;;;;;;;;;;;;;;;15.97;58.21;101589.81;5056147;28;1615;-58
2021/01/20 00:57:01;;;;;;;;;;;;;;;15.95;58.01;101592.56;5056199;28;1409;-60
2021/01/20 00:59:26;;;;;;;;;;;;;;;15.93;58.48;101594.47;5055656;28;1461;-60
2021/01/20 01:01:57;;;;;;;;;;;;;;;15.95;56.79;101586.38;5055925;28;1497;-57
2021/01/20 01:04:23;;;;;;;;;;;;;;;15.92;58.42;101587.44;5055572;28;1492;-60
2021/01/20 01:06:48;;;;;;;;;;;;;;;15.91;57.27;101580.38;5055745;28;1540;-57
2021/01/20 01:09:14;;;;;;;;;;;;;;;15.92;57.58;101587.44;5055522;28;1505;-58
2021/01/20 01:11:39;;;;;;;;;;;;;;;15.91;58.19;101580.38;5055520;28;1979;-57
2021/01/20 01:14:04;;;;;;;;;;;;;;;15.88;57.72;101584.09;5055866;28;1448;-59
2021/01/20 01:16:30;;;;;;;;;;;;;;;15.91;57.40;101586.56;5055612;28;1469;-58
2021/01/20 01:18:55;;;;;;;;;;;;;;;15.89;57.33;101577.78;5055695;28;1539;-59
2021/01/20 01:21:20;;;;;;;;;;;;;;;15.89;58.23;101572.47;5055687;28;1488;-60
2021/01/20 01:23:46;;;;;;;;;;;;;;;15.92;58.32;101571.44;5055909;28;1472;-58
2021/01/20 01:26:11;;;;;;;;;;;;;;;15.95;57.54;101575.72;5055056;28;1531;-58
2021/01/20 01:28:36;;;;;;;;;;;;;;;15.93;57.60;101569.63;5055432;28;1484;-59
2021/01/20 01:31:02;;;;;;;;;;;;;;;15.88;58.37;101573.44;5055528;28;1890;-58
2021/01/20 01:33:27;;;;;;;;;;;;;;;15.87;57.97;101582.38;5047667;28;1397;-57
2021/01/20 01:35:52;;;;;;;;;;;;;;;15.85;58.28;101576.28;5055281;28;1473;-58
2021/01/20 01:38:18;;;;;;;;;;;;;;;15.82;57.48;101580.97;5055258;28;1528;-60
2021/01/20 01:40:43;;;;;;;;;;;;;;;15.80;58.41;101588.22;5055441;28;1563;-59
2021/01/20 01:43:09;;;;;;;;;;;;;;;15.80;58.61;101583.72;5054971;28;1544;-58
2021/01/20 01:45:34;;;;;;;;;;;;;;;15.77;58.58;101567.91;5055211;28;1547;-61
2021/01/20 01:47:59;;;;;;;;;;;;;;;15.78;58.33;101580.28;5054060;28;1509;-61
2021/01/20 01:50:25;;;;;;;;;;;;;;;15.75;57.44;101579.63;5054288;28;1365;-59
2021/01/20 01:52:50;;;;;;;;;;;;;;;15.76;58.81;101582.19;5054964;28;1957;-60
2021/01/20 01:55:15;;;;;;;;;;;;;;;15.74;58.67;101573.44;5054740;28;1619;-58
2021/01/20 01:57:42;;;;;;;;;;;;;;;15.72;58.12;101569.97;5065016;28;1457;-60
2021/01/20 02:00:08;;;;;;;;;;;;;;;15.73;58.57;101569.03;5054364;28;1453;-60
2021/01/20 02:02:34;;;;;;;;;;;;;;;15.72;57.85;101572.63;5054601;28;1666;-60
2021/01/20 02:05:00;;;;;;;;;;;;;;;15.70;58.10;101567.41;5054098;28;1515;-59
2021/01/20 02:07:26;;;;;;;;;;;;;;;15.73;57.79;101568.19;5054628;28;1310;-60
2021/01/20 02:09:51;;;;;;;;;;;;;;;15.74;58.73;101557.44;5054815;28;1473;-58
2021/01/20 02:12:35;;;;;;;;;;;;;;;15.76;58.15;101568.88;5063046;28;1906;-58
2021/01/20 02:15:08;;;;;;;;;;;;;;;15.72;58.37;101559.31;5051699;28;1568;-58
2021/01/20 02:17:36;;;;;;;;;;;;;;;15.70;58.14;101566.53;5047175;28;1442;-59
2021/01/20 02:20:31;;;;;;;;;;;;;;;15.69;58.77;101562.16;5053340;28;1454;-60
2021/01/20 02:22:58;;;;;;;;;;;;;;;15.66;58.27;101559.69;5025195;28;1488;-58
2021/01/20 02:25:27;;;;;;;;;;;;;;;15.64;58.38;101557.13;5054383;28;1480;-57
2021/01/20 02:28:00;;;;;;;;;;;;;;;15.68;58.62;101568.44;5054509;28;1528;-59
2021/01/20 02:30:26;;;;;;;;;;;;;;;15.68;58.13;101553.31;5053403;28;1481;-58
2021/01/20 02:32:54;;;;;;;;;;;;;;;15.64;57.72;101564.25;5054367;28;1890;-59
2021/01/20 02:35:21;;;;;;;;;;;;;;;15.67;57.61;101543.56;5050259;28;1497;-59
2021/01/20 02:37:47;;;;;;;;;;;;;;;15.67;58.02;101550.72;5054107;28;1444;-57
2021/01/20 02:40:13;;;;;;;;;;;;;;;15.66;58.07;101549.03;5051455;28;1386;-59
2021/01/20 02:42:45;;;;;;;;;;;;;;;15.67;57.64;101553.38;5053040;28;1554;-59
2021/01/20 02:45:11;;;;;;;;;;;;;;;15.70;58.50;101561.22;5053955;28;1628;-59
2021/01/20 02:47:37;;;;;;;;;;;;;;;15.66;58.58;101543.69;5054131;28;1464;-58
2021/01/20 02:50:03;;;;;;;;;;;;;;;15.65;57.71;101541.97;5053604;28;1560;-58
2021/01/20 02:52:35;;;;;;;;;;;;;;;15.65;58.19;101541.97;5052853;28;1893;-60
2021/01/20 02:55:02;;;;;;;;;;;;;;;15.61;58.49;101535.09;5052951;28;1545;-59
2021/01/20 02:57:28;;;;;;;;;;;;;;;15.62;57.85;101540.34;5045828;28;1385;-58
2021/01/20 02:59:56;;;;;;;;;;;;;;;15.61;58.39;101535.09;5053170;28;1552;-57
2021/01/20 03:02:30;;;;;;;;;;;;;;;15.55;58.37;101528.34;5056685;22;2018;-54
2021/01/20 03:04:56;;;;;;;;;;;;;;;15.57;58.08;101536.25;5036742;28;1683;-54
2021/01/20 03:07:22;;;;;;;;;;;;;;;15.56;57.75;101555.84;5038162;28;1704;-54
2021/01/20 03:09:48;;;;;;;;;;;;;;;15.58;58.12;101557.50;5040998;28;1535;-54
2021/01/20 03:12:13;;;;;;;;;;;;;;;15.52;58.49;101526.72;5040106;22;3517;-58
2021/01/20 03:14:41;;;;;;;;;;;;;;;15.50;58.09;101531.28;5024860;28;1536;-58
2021/01/20 03:17:06;;;;;;;;;;;;;;;15.53;58.13;101538.25;5022529;28;1516;-60
2021/01/20 03:19:31;;;;;;;;;;;;;;;15.56;58.79;101543.41;5020922;28;1457;-58
2021/01/20 03:21:57;;;;;;;;;;;;;;;15.57;57.78;101552.25;5023999;28;1642;-58
2021/01/20 03:24:22;;;;;;;;;;;;;;;15.59;58.06;101545.00;5025505;28;1584;-58
2021/01/20 03:26:48;;;;;;;;;;;;;;;15.57;58.72;101555.75;5027441;28;1568;-59
2021/01/20 03:29:13;;;;;;;;;;;;;;;15.57;57.71;101549.56;5018806;28;1620;-58
2021/01/20 03:31:39;;;;;;;;;;;;;;;15.52;58.07;101549.88;5026481;28;1893;-58
2021/01/20 03:34:04;;;;;;;;;;;;;;;15.48;58.23;101541.19;5017411;28;1611;-58
2021/01/20 03:36:30;;;;;;;;;;;;;;;15.49;58.49;101550.88;5019783;28;1564;-59
2021/01/20 03:38:55;;;;;;;;;;;;;;;15.45;58.63;101552.03;5023485;28;1508;-57
2021/01/20 03:41:20;;;;;;;;;;;;;;;15.46;58.40;101558.25;5020323;28;1477;-58
2021/01/20 03:43:46;;;;;;;;;;;;;;;15.48;58.60;101556.34;5025871;28;1632;-58
2021/01/20 03:46:12;;;;;;;;;;;;;;;15.42;58.51;101552.22;5024348;28;1576;-58
2021/01/20 03:48:37;;;;;;;;;;;;;;;15.42;58.15;101554.00;5021901;28;1572;-60
2021/01/20 03:51:03;;;;;;;;;;;;;;;15.39;58.43;101548.88;5018841;28;1957;-60
2021/01/20 03:53:28;;;;;;;;;;;;;;;15.43;57.81;101556.59;5026365;28;1587;-58
2021/01/20 03:55:53;;;;;;;;;;;;;;;15.45;57.88;101562.69;5024151;28;1515;-58
2021/01/20 03:58:19;;;;;;;;;;;;;;;15.44;58.40;101569.00;5024034;28;1547;-60
2021/01/20 04:00:44;;;;;;;;;;;;;;;15.43;57.50;101556.59;5022005;28;1572;-60
2021/01/20 04:03:10;;;;;;;;;;;;;;;15.46;58.93;101558.25;5023597;28;1523;-58
2021/01/20 04:05:35;;;;;;;;;;;;;;;15.50;58.31;101565.94;5020560;28;1682;-57
2021/01/20 04:08:00;;;;;;;;;;;;;;;15.48;58.65;101567.84;5024674;28;1642;-60
2021/01/20 04:10:26;;;;;;;;;;;;;;;15.50;58.55;101554.44;5025562;28;1580;-60
2021/01/20 04:12:51;;;;;;;;;;;;;;;15.50;59.00;101549.97;5031153;28;1909;-61
2021/01/20 04:15:16;;;;;;;;;;;;;;;15.55;59.22;101559.47;5025837;28;1497;-58
2021/01/20 04:17:42;;;;;;;;;;;;;;;15.45;59.25;101552.03;5026594;28;1663;-61
2021/01/20 04:20:07;;;;;;;;;;;;;;;15.42;58.64;101562.00;5025388;28;1411;-60
2021/01/20 04:22:37;;;;;;;;;;;;;;;15.39;59.40;101573.72;5025444;28;1631;-61
2021/01/20 04:25:04;;;;;;;;;;;;;;;15.37;59.17;101564.97;5025567;28;1512;-60
2021/01/20 04:27:29;;;;;;;;;;;;;;;15.37;59.04;101564.97;5027731;28;1523;-59
2021/01/20 04:29:54;;;;;;;;;;;;;;;15.39;59.10;101562.22;5025459;28;1576;-60
2021/01/20 04:32:20;;;;;;;;;;;;;;;15.41;58.66;101565.66;5028789;28;1989;-58
2021/01/20 04:34:45;;;;;;;;;;;;;;;15.42;59.07;101562.91;5024986;28;1579;-58
2021/01/20 04:37:11;;;;;;;;;;;;;;;15.43;58.95;101564.59;5026362;28;1572;-59
2021/01/20 04:39:36;;;;;;;;;;;;;;;15.40;59.26;101570.13;5025483;28;1524;-60
2021/01/20 04:42:03;;;;;;;;;;;;;;;15.37;58.44;101551.63;5027015;28;1596;-58
2021/01/20 04:44:29;;;;;;;;;;;;;;;15.37;58.63;101558.78;5024229;28;1663;-58
2021/01/20 04:46:55;;;;;;;;;;;;;;;15.35;59.40;101571.34;5029007;28;1690;-60
2021/01/20 04:49:21;;;;;;;;;;;;;;;15.34;58.46;101567.84;5025706;28;1512;-58
2021/01/20 04:51:47;;;;;;;;;;;;;;;15.32;58.61;101562.59;5030805;28;1893;-60
2021/01/20 04:54:15;;;;;;;;;;;;;;;15.29;58.64;101562.75;5021940;28;1508;-58
2021/01/20 04:56:40;;;;;;;;;;;;;;;15.30;58.63;101572.47;5023773;28;1666;-58
2021/01/20 04:59:06;;;;;;;;;;;;;;;15.31;59.81;101558.19;5030316;28;1586;-59
2021/01/20 05:01:32;;;;;;;;;;;;;;;15.30;59.64;101560.97;5022710;28;1504;-58
2021/01/20 05:03:59;;;;;;;;;;;;;;;15.30;59.01;101569.81;5023768;28;1583;-60
2021/01/20 05:06:25;;;;;;;;;;;;;;;15.28;58.80;101570.88;5026995;28;1524;-60
2021/01/20 05:08:50;;;;;;;;;;;;;;;15.31;58.99;101582.19;5024707;28;1559;-58
2021/01/20 05:11:15;;;;;;;;;;;;;;;15.31;59.13;101570.66;5023619;28;1902;-58
2021/01/20 05:13:42;;;;;;;;;;;;;;;15.32;59.73;101575.06;5028543;28;1583;-58
2021/01/20 05:16:08;;;;;;;;;;;;;;;15.30;59.04;101558.31;5025194;28;1650;-58
2021/01/20 05:18:48;;;;;;;;;;;;;;;15.30;59.07;101568.97;5026570;28;1645;-60
2021/01/20 05:21:17;;;;;;;;;;;;;;;15.30;58.73;101563.63;5026536;28;1552;-59
2021/01/20 05:23:43;;;;;;;;;;;;;;;15.31;58.72;101565.34;5023247;28;1564;-58
2021/01/20 05:26:08;;;;;;;;;;;;;;;15.31;58.62;101576.84;5028177;28;1552;-58
2021/01/20 05:28:34;;;;;;;;;;;;;;;15.25;59.40;101568.38;5022884;28;1650;-58
2021/01/20 05:31:01;;;;;;;;;;;;;;;15.28;58.90;101570.88;5026000;28;1899;-58
2021/01/20 05:33:39;;;;;;;;;;;;;;;15.23;58.78;101573.78;5023016;28;1515;-59
2021/01/20 05:36:08;;;;;;;;;;;;;;;15.23;59.23;101570.28;5025611;28;1564;-58
2021/01/20 05:38:33;;;;;;;;;;;;;;;15.23;58.94;101567.59;5028998;28;1515;-60
2021/01/20 05:41:13;;;;;;;;;;;;;;;15.22;58.82;101563.22;5026163;28;1590;-59
2021/01/20 05:43:38;;;;;;;;;;;;;;;15.21;59.14;101567.69;5023300;28;1615;-59
2021/01/20 05:46:03;;;;;;;;;;;;;;;15.25;58.98;101576.38;5029141;28;1654;-60
2021/01/20 05:48:29;;;;;;;;;;;;;;;15.25;58.53;101573.69;5019460;28;1512;-59
2021/01/20 05:50:55;;;;;;;;;;;;;;;15.24;59.05;101579.97;5025377;28;1955;-60
2021/01/20 05:53:21;;;;;;;;;;;;;;;15.23;58.32;101570.28;5025330;28;1568;-58
2021/01/20 05:55:59;;;;;;;;;;;;;;;15.19;59.05;101561.59;5025127;28;1576;-59
2021/01/20 05:58:35;;;;;;;;;;;;;;;15.21;58.71;101583.69;5008400;28;1401;-59
2021/01/20 06:01:07;;;;;;;;;;;;;;;15.20;58.66;101567.78;5000939;28;1667;-60
2021/01/20 06:03:33;;;;;;;;;;;;;;;15.18;58.91;101573.22;5015635;28;1728;-59
2021/01/20 06:06:01;;;;;;;;;;;;;;;15.18;59.13;101570.56;5025280;28;1481;-59
2021/01/20 06:08:27;;;;;;;;;;;;;;;15.17;59.21;101570.63;5021212;28;1344;-58
2021/01/20 06:10:52;;;;;;;;;;;;;;;15.15;58.78;101572.53;5020688;28;1913;-60
2021/01/20 06:13:17;;;;;;;;;;;;;;;15.15;59.16;101575.19;5023816;28;1512;-59
2021/01/20 06:15:43;;;;;;;;;;;;;;;15.14;58.69;101582.34;5016265;28;1516;-58
2021/01/20 06:18:11;;;;;;;;;;;;;;;15.17;58.88;101575.97;5017753;28;1485;-60
2021/01/20 06:20:37;;;;;;;;;;;;;;;15.18;59.21;101575.00;5024389;28;1500;-58
2021/01/20 06:23:02;;;;;;;;;;;;;;;15.10;58.86;101568.34;5023986;28;1528;-58
2021/01/20 06:25:29;;;;;;;;;;;;;;;15.11;59.40;101561.19;5025472;28;1441;-58
2021/01/20 06:28:06;;;;;;;;;;;;;;;15.16;59.51;101567.13;5022027;28;1638;-58
2021/01/20 06:30:38;;;;;;;;;;;;;;;15.16;58.93;101588.44;5021363;28;1378;-60
2021/01/20 06:33:06;;;;;;;;;;;;;;;15.18;58.75;101580.31;5019665;28;1886;-58
2021/01/20 06:35:38;;;;;;;;;;;;;;;15.18;58.67;101581.22;5018822;28;1496;-59
2021/01/20 06:38:04;;;;;;;;;;;;;;;15.19;59.08;101587.38;5015729;28;1309;-58
2021/01/20 06:40:32;;;;;;;;;;;;;;;15.18;59.04;101580.31;5015642;28;1290;-58
2021/01/20 06:42:58;;;;;;;;;;;;;;;15.18;58.92;101580.31;5021800;28;1422;-58
2021/01/20 06:45:24;;;;;;;;;;;;;;;15.14;59.25;101581.47;5016761;28;1301;-60
2021/01/20 06:47:58;;;;;;;;;;;;;;;15.15;59.31;101591.19;5024865;28;1442;-58
2021/01/20 06:50:25;;;;;;;;;;;;;;;15.10;59.31;101589.66;5016595;28;1434;-60
2021/01/20 06:53:08;;;;;;;;;;;;;;;14.99;59.30;101560.09;5019144;28;1886;-57
2021/01/20 06:55:35;;;;;;;;;;;;;;;15.15;60.20;101580.53;5018705;28;1477;-60
2021/01/20 06:58:19;;;;;;;;;;;;;;;15.19;61.44;101587.38;5023665;28;1873;-58
2021/01/20 07:01:00;;;;;;;;;;;;;;;15.22;61.89;101580.06;5017014;28;1386;-59
2021/01/20 07:03:41;;;;;;;;;;;;;;;15.27;61.79;101590.44;5029849;28;1587;-58
2021/01/20 07:06:25;;;;;;;;;;;;;;;15.26;61.93;101588.72;5024145;28;1532;-59
2021/01/20 07:08:51;;;;;;;;;;;;;;;15.29;61.25;101593.88;5023824;28;1461;-59
2021/01/20 07:11:18;;;;;;;;;;;;;;;15.31;60.91;101603.50;5022435;28;1914;-58
2021/01/20 07:13:44;;;;;;;;;;;;;;;15.40;61.61;101596.78;5023491;28;1504;-59
2021/01/20 07:16:10;;;;;;;;;;;;;;;15.36;61.22;101605.91;5024808;28;1500;-58
2021/01/20 07:18:40;;;;;;;;;;;;;;;15.31;61.59;101608.81;5019520;28;1444;-61
2021/01/20 07:21:06;;;;;;;;;;;;;;;15.31;61.24;101598.16;5020555;28;1446;-58
2021/01/20 07:23:32;;;;;;;;;;;;;;;15.40;61.46;101609.22;5027886;28;1448;-58
2021/01/20 07:25:58;;;;;;;;;;;;;;;15.49;59.69;101620.19;5025946;28;1461;-58
2021/01/20 07:28:23;;;;;;;;;;;;;;;15.72;59.98;101623.31;5020539;28;1564;-58
2021/01/20 07:30:49;;;;;;;;;;;;;;;15.96;58.38;101618.31;5023398;28;1914;-58
2021/01/20 07:33:15;;;;;;;;;;;;;;;16.17;59.61;101612.56;5016287;28;1731;-58
2021/01/20 07:35:40;;;;;;;;;;;;;;;16.30;59.19;101611.72;5017669;28;1341;-59
2021/01/20 07:38:06;;;;;;;;;;;;;;;16.44;58.03;101605.50;5019396;28;1548;-59
2021/01/20 07:40:32;;;;;;;;;;;;;;;16.66;58.40;101601.44;5015642;28;1674;-59
2021/01/20 07:42:58;;;;;;;;;;;;;;;16.79;57.91;101598.81;5028055;28;1489;-59
2021/01/20 07:45:31;;;;;;;;;;;;;;;16.93;57.60;101596.16;5024617;28;1595;-58
2021/01/20 07:47:56;;;;;;;;;;;;;;;17.04;55.79;101593.59;5017840;28;1313;-59
2021/01/20 07:50:34;;;;;;;;;;;;;;;17.24;55.84;101604.78;5017491;28;1331;-59
2021/01/20 07:52:59;;;;;;;;;;;;;;;17.39;55.40;101592.16;5017303;28;1894;-60
2021/01/20 07:55:24;;;;;;;;;;;;;;;17.45;54.55;101581.94;5018470;28;868;-59
2021/01/20 07:57:55;;;;;;;;;;;;;;;17.62;54.74;101593.28;5018529;28;755;-60
2021/01/20 08:00:20;;;;;;;;;;;;;;;17.70;55.15;101597.13;5017792;28;1349;-61
2021/01/20 08:02:49;;;;;;;;;;;;;;;17.78;54.04;101583.19;5017638;28;1407;-59
2021/01/20 08:05:14;;;;;;;;;;;;;;;17.84;53.96;101582.81;5023593;28;1536;-60
2021/01/20 08:07:39;;;;;;;;;;;;;;;17.95;53.44;101590.09;5024396;28;1516;-58
2021/01/20 08:10:16;;;;;;;;;;;;;;;18.05;52.88;101595.66;5018263;28;1389;-58
2021/01/20 08:12:41;;;;;;;;;;;;;;;18.18;54.07;101593.78;5022656;28;1977;-58
2021/01/20 08:15:07;;;;;;;;;;;;;;;18.27;53.33;101594.97;5019909;28;1388;-62
2021/01/20 08:17:33;;;;;;;;;;;;;;;18.41;53.31;101589.47;5020781;28;1463;-59
2021/01/20 08:19:58;;;;;;;;;;;;;;;18.48;52.66;101585.38;5023452;28;1449;-63
2021/01/20 08:22:24;;;;;;;;;;;;;;;18.65;50.70;101588.63;5031363;28;1488;-59
2021/01/20 08:24:52;;;;;;;;;;;;;;;18.90;51.26;101603.78;5030153;28;1513;-59
2021/01/20 08:27:25;;;;;;;;;;;;;;;18.67;53.39;101600.09;5023233;28;1631;-60
2021/01/20 08:29:51;;;;;;;;;;;;;;;18.84;52.43;101598.88;5033322;28;1460;-60
2021/01/20 08:32:17;;;;;;;;;;;;;;;18.65;53.75;101586.81;5026222;28;1886;-61
2021/01/20 08:34:43;;;;;;;;;;;;;;;18.53;55.10;101584.19;5023650;28;1592;-60
2021/01/20 08:37:09;;;;;;;;;;;;;;;18.55;55.12;101583.09;5026524;28;1658;-59
2021/01/20 08:39:36;;;;;;;;;;;;;;;18.66;54.77;101591.22;5024214;28;1421;-58
2021/01/20 08:42:32;;;;;;;;;;;;;;;18.72;54.76;101594.38;5024821;28;1575;-59
2021/01/20 08:45:07;;;;;;;;;;;;;;;18.65;55.04;101584.13;5026506;28;1599;-58
2021/01/20 08:47:33;;;;;;;;;;;;;;;18.54;54.65;101592.09;5021054;28;1461;-62
2021/01/20 08:49:58;;;;;;;;;;;;;;;18.60;55.21;101578.28;5022551;28;1488;-59
2021/01/20 08:52:24;;;;;;;;;;;;;;;18.53;55.40;101568.97;5019898;28;1998;-59
2021/01/20 08:54:49;;;;;;;;;;;;;;;18.38;55.89;101580.78;5020782;28;1430;-60
2021/01/20 08:57:18;;;;;;;;;;;;;;;18.16;57.28;101576.13;5016592;28;805;-58
2021/01/20 09:00:09;;;;;;;;;;;;;;;18.08;57.29;101587.38;5018480;28;1371;-58
2021/01/20 09:02:35;;;;;;;;;;;;;;;18.01;56.93;101588.81;5016679;28;1273;-59
2021/01/20 09:05:00;;;;;;;;;;;;;;;17.95;57.52;101574.03;5031888;28;1461;-59
2021/01/20 09:07:25;;;;;;;;;;;;;;;17.90;58.23;101576.16;5015991;28;1363;-61
2021/01/20 09:09:51;;;;;;;;;;;;;;;17.88;57.10;101570.91;4999726;28;1276;-62
2021/01/20 09:12:16;;;;;;;;;;;;;;;17.96;57.50;101578.41;5002309;28;1976;-58
2021/01/20 09:14:41;;;;;;;;;;;;;;;17.96;56.25;101558.84;5016538;28;1322;-58
2021/01/20 09:17:07;;;;;;;;;;;;;;;17.95;57.11;101555.31;5018657;28;1459;-61
2021/01/20 09:19:32;;;;;;;;;;;;;;;18.07;56.45;101565.13;5027226;28;1433;-58
2021/01/20 09:21:58;;;;;;;;;;;;;;;18.07;56.60;101562.44;5017977;28;1618;-59
2021/01/20 09:24:24;;;;;;;;;;;;;;;18.16;55.99;101560.06;5022670;28;1587;-61
2021/01/20 09:26:49;;;;;;;;;;;;;;;18.18;56.22;101542.94;5026874;28;1580;-59
2021/01/20 09:29:14;;;;;;;;;;;;;;;18.15;56.32;101547.66;5020112;28;1512;-59
2021/01/20 09:31:40;;;;;;;;;;;;;;;17.97;57.32;101541.81;5025844;28;1947;-59
2021/01/20 09:34:05;;;;;;;;;;;;;;;17.91;57.15;101551.13;5019555;28;1655;-59
2021/01/20 09:36:30;;;;;;;;;;;;;;;17.85;57.49;101539.03;5023229;28;1646;-60
2021/01/20 09:38:59;;;;;;;;;;;;;;;17.82;57.14;101531.19;5027717;28;1584;-59
2021/01/20 09:41:25;;;;;;;;;;;;;;;17.88;57.83;101546.84;5026849;28;1287;-62
2021/01/20 09:43:51;;;;;;;;;;;;;;;17.84;58.06;101531.13;5024861;28;1566;-59
2021/01/20 09:46:17;;;;;;;;;;;;;;;17.79;57.43;101503.81;5027348;28;1504;-59
2021/01/20 09:48:42;;;;;;;;;;;;;;;17.86;57.73;101505.97;5031214;28;1592;-59
2021/01/20 09:51:08;;;;;;;;;;;;;;;17.92;58.01;101511.84;5019669;28;1951;-61
2021/01/20 09:53:34;;;;;;;;;;;;;;;17.88;57.03;101506.69;5027183;28;1401;-59
2021/01/20 09:55:59;;;;;;;;;;;;;;;17.91;57.85;101497.63;5025473;28;1584;-60
2021/01/20 09:58:25;;;;;;;;;;;;;;;17.81;57.52;101491.19;5026965;28;1457;-65
2021/01/20 10:00:50;;;;;;;;;;;;;;;17.81;57.86;101477.81;5016193;28;793;-60
2021/01/20 10:03:15;;;;;;;;;;;;;;;17.81;57.89;101481.34;5015789;28;1422;-64
2021/01/20 10:05:41;;;;;;;;;;;;;;;17.84;57.75;101483.81;5015987;28;824;-65
2021/01/20 10:08:06;;;;;;;;;;;;;;;17.79;57.64;101466.38;5015101;28;800;-66
2021/01/20 10:10:31;;;;;;;;;;;;;;;17.79;58.71;101477.91;5014699;28;1258;-61
2021/01/20 10:12:56;;;;;;;;;;;;;;;17.82;58.32;101468.81;5021177;28;1918;-60
2021/01/20 10:15:22;;;;;;;;;;;;;;;17.81;58.34;101470.63;5021090;28;1603;-67
2021/01/20 10:17:50;;;;;;;;;;;;;;;17.79;58.05;101467.22;5015705;28;1410;-60
2021/01/20 10:20:16;;;;;;;;;;;;;;;17.82;57.30;101466.97;5015922;28;761;-58
2021/01/20 10:22:41;;;;;;;;;;;;;;;17.85;58.27;101474.00;5022196;28;1548;-59
2021/01/20 10:25:07;;;;;;;;;;;;;;;17.97;57.14;101481.13;5019210;28;1515;-60
2021/01/20 10:27:33;;;;;;;;;;;;;;;18.01;58.08;101471.91;5019284;28;1529;-62
2021/01/20 10:29:58;;;;;;;;;;;;;;;18.12;56.03;101471.09;5027045;28;1580;-60
2021/01/20 10:32:24;;;;;;;;;;;;;;;18.09;56.29;101457.97;5025158;28;1886;-59
2021/01/20 10:34:49;;;;;;;;;;;;;;;18.08;56.12;101454.44;5021143;28;1643;-60
2021/01/20 10:37:15;;;;;;;;;;;;;;;18.09;56.06;101442.75;5026211;28;1524;-61
2021/01/20 10:39:41;;;;;;;;;;;;;;;18.03;56.04;101453.06;5020491;28;1725;-63
2021/01/20 10:42:06;;;;;;;;;;;;;;;17.92;56.09;101429.75;5025301;28;1666;-59
2021/01/20 10:44:31;;;;;;;;;;;;;;;17.76;55.64;101432.66;5024597;28;1572;-61
2021/01/20 10:46:57;;;;;;;;;;;;;;;17.90;56.38;101442.38;5015222;28;1604;-62
2021/01/20 10:49:22;;;;;;;;;;;;;;;17.92;55.20;101439.59;5020277;28;1454;-64
2021/01/20 10:51:48;;;;;;;;;;;;;;;17.94;55.53;101438.50;5024251;28;1874;-63
2021/01/20 10:54:14;;;;;;;;;;;;;;;17.91;54.96;101428.06;5019057;28;1374;-60
2021/01/20 10:56:40;;;;;;;;;;;;;;;17.86;54.52;101423.00;5026233;28;1497;-61
2021/01/20 10:59:06;;;;;;;;;;;;;;;17.84;55.43;101424.94;5020826;28;1607;-61
2021/01/20 11:01:31;;;;;;;;;;;;;;;17.82;55.46;101432.19;5021790;28;1576;-58
2021/01/20 11:03:57;;;;;;;;;;;;;;;17.94;54.38;101432.31;5021275;28;1419;-61
2021/01/20 11:06:22;;;;;;;;;;;;;;;17.97;54.98;101437.47;5021995;28;1524;-58
2021/01/20 11:08:47;;;;;;;;;;;;;;;17.93;54.81;101427.94;5021865;28;1584;-60
2021/01/20 11:11:13;;;;;;;;;;;;;;;17.86;55.16;101428.38;5022393;28;1973;-59
2021/01/20 11:13:39;;;;;;;;;;;;;;;17.86;56.04;101431.03;5022253;28;1583;-58
2021/01/20 11:16:04;;;;;;;;;;;;;;;17.91;55.14;101422.69;5017832;28;1459;-58
2021/01/20 11:18:32;;;;;;;;;;;;;;;17.93;56.10;101398.50;5028636;28;1639;-62
2021/01/20 11:20:58;;;;;;;;;;;;;;;18.00;54.79;101407.78;5029507;28;1511;-61
2021/01/20 11:23:26;;;;;;;;;;;;;;;18.05;56.23;101419.84;5025144;28;1618;-58
2021/01/20 11:25:52;;;;;;;;;;;;;;;18.07;56.45;101404.53;5031563;28;1294;-59
2021/01/20 11:28:18;;;;;;;;;;;;;;;18.17;56.63;101406.53;5022078;28;1516;-66
2021/01/20 11:30:43;;;;;;;;;;;;;;;18.27;56.20;101411.06;5022029;28;1422;-64
2021/01/20 11:33:09;;;;;;;;;;;;;;;18.24;56.31;101402.41;5017889;28;1902;-61
2021/01/20 11:35:35;;;;;;;;;;;;;;;18.27;56.18;101394.16;5028137;28;1595;-57
2021/01/20 11:38:00;;;;;;;;;;;;;;;18.27;56.20;101400.38;5029574;28;1631;-57
2021/01/20 11:40:26;;;;;;;;;;;;;;;18.24;57.43;101399.75;5026290;28;1532;-71
2021/01/20 11:42:58;;;;;;;;;;;;;;;18.18;58.24;101409.06;5024091;28;1638;-58
2021/01/20 11:45:24;;;;;;;;;;;;;;;18.22;58.67;101402.56;5027920;28;1250;-73
2021/01/20 11:47:50;;;;;;;;;;;;;;;18.22;58.54;101399.88;5022779;28;1469;-58
2021/01/20 11:50:15;;;;;;;;;;;;;;;18.25;58.44;101410.34;5020773;28;1425;-65
2021/01/20 11:52:41;;;;;;;;;;;;;;;18.31;58.72;101406.34;5030278;28;1886;-65
2021/01/20 11:55:06;;;;;;;;;;;;;;;18.07;57.56;101388.47;5022095;28;1362;-60
2021/01/20 11:57:32;;;;;;;;;;;;;;;17.98;57.33;101390.97;5023086;28;1461;-56
2021/01/20 11:59:57;;;;;;;;;;;;;;;17.88;58.64;101396.16;5016487;28;754;-61
2021/01/20 12:02:22;;;;;;;;;;;;;;;17.83;59.35;101415.22;5025398;28;1491;-62
2021/01/20 12:04:48;;;;;;;;;;;;;;;17.80;59.10;101396.69;5026117;28;1194;-55
2021/01/20 12:07:13;;;;;;;;;;;;;;;17.78;59.35;101395.09;5035144;28;1325;-62
2021/01/20 12:09:38;;;;;;;;;;;;;;;17.75;60.12;101389.97;5021794;28;1453;-62
2021/01/20 12:12:04;;;;;;;;;;;;;;;17.76;60.24;101392.53;5037727;28;1993;-62
2021/01/20 12:14:29;;;;;;;;;;;;;;;17.76;59.21;101386.31;5018504;28;1524;-57
2021/01/20 12:16:55;;;;;;;;;;;;;;;17.76;59.31;101389.00;5018270;28;959;-56
2021/01/20 12:19:20;;;;;;;;;;;;;;;17.75;59.19;101395.34;5024808;28;1484;-62
2021/01/20 12:21:46;;;;;;;;;;;;;;;17.73;60.39;101398.13;5036690;28;1595;-55
2021/01/20 12:24:11;;;;;;;;;;;;;;;17.74;59.40;101394.47;5022145;28;1583;-61
2021/01/20 12:26:36;;;;;;;;;;;;;;;17.78;59.26;101395.09;5024528;28;1643;-56
2021/01/20 12:29:02;;;;;;;;;;;;;;;17.79;58.95;101396.81;5019531;28;1527;-62
2021/01/20 12:31:27;;;;;;;;;;;;;;;17.77;59.76;101404.94;5023462;28;1894;-61
2021/01/20 12:33:53;;;;;;;;;;;;;;;17.79;59.75;101405.69;5029999;28;1504;-56
2021/01/20 12:36:20;;;;;;;;;;;;;;;17.78;59.61;101395.94;5027411;28;1432;-56
2021/01/20 12:38:45;;;;;;;;;;;;;;;17.81;59.69;101393.06;5031579;28;1568;-56
2021/01/20 12:41:11;;;;;;;;;;;;;;;17.85;58.65;101399.06;5037570;28;814;-56
2021/01/20 12:43:36;;;;;;;;;;;;;;;17.81;59.33;101400.22;5019084;28;1504;-62
2021/01/20 12:46:02;;;;;;;;;;;;;;;17.82;59.03;101391.22;5025537;28;1567;-56